UPSVAC Airport Information Service

Homer Airport

ICAO: PAHO Country: Homer, Alaska USA
Latitude: 59.6456 Longitude: -151.477
Latest Arrival : UPSJUMP (KSDF-PAHO) Latest Departure : AMF203 (PAHO-PANC)


WX CaptureLIVE
Data provided by noaa.gov | Fetched at 16:52:26

METAR : PAHO 191553Z 07005KT 10SM CLR 03/00 A2966 RMK AO2 SLP043 T00280000 $

TAF : PAHO 191130Z 1912/2012 VRB05KT P6SM SKC FM192300 25009KT P6SM SKC


Runway Data for PAHO
Data provided by openaviationdata.com

Runway ID Mag Var Hdg Length Elevation Surface ILS Freq ILS Id ILS Slope
3 22 33° 6684 ft 20 ft Asphalt 109.3 IHOM 0
21 22 213° 6684 ft 20 ft Asphalt -- -- --

Homer Airport, Homer, Alaska USA
Use only for reference purposes



Not for navigational purposes.